Time;durP1;ratioP1;P1;durP2;ratioP2;P2;SDS_P1;SDS_P2;PMS_P1;PMS_P2;Temp;Humidity;BMP_temperature;BMP_pressure;BME280_temperature;BME280_humidity;BME280_pressure;Samples;Min_cycle;Max_cycle;Signal;HPM_P1;HPM_P2
2022/06/17 00:02:07;;;;;;;9.60;4.95;;;16.80;91.00;;;;;;5012099;28;20100;-43
2022/06/17 00:04:34;;;;;;;7.10;4.68;;;16.70;91.40;;;;;;4992308;28;20096;-42
2022/06/17 00:07:02;;;;;;;10.55;4.50;;;16.70;91.30;;;;;;4989140;28;20085;-42
2022/06/17 00:09:30;;;;;;;8.38;5.20;;;16.70;91.20;;;;;;4990466;28;20046;-42
2022/06/17 00:11:57;;;;;;;8.35;5.55;;;16.70;91.50;;;;;;5010897;28;20054;-42
2022/06/17 00:14:25;;;;;;;9.10;5.93;;;16.70;91.60;;;;;;4997652;28;20077;-42
2022/06/17 00:16:52;;;;;;;8.55;5.65;;;16.60;91.90;;;;;;5012667;28;20092;-42
2022/06/17 00:19:20;;;;;;;8.70;5.68;;;16.60;92.00;;;;;;5012291;28;20046;-43
2022/06/17 00:21:48;;;;;;;7.55;5.70;;;16.50;92.00;;;;;;5008260;28;20068;-43
2022/06/17 00:24:17;;;;;;;5.95;5.35;;;16.60;92.10;;;;;;5012265;28;20085;-42
2022/06/17 00:26:44;;;;;;;10.27;5.72;;;16.50;91.80;;;;;;4998182;28;20104;-41
2022/06/17 00:29:12;;;;;;;7.28;5.95;;;16.40;91.70;;;;;;4994251;28;20115;-41
2022/06/17 00:31:39;;;;;;;7.70;5.65;;;16.40;91.50;;;;;;4986920;28;20068;-42
2022/06/17 00:34:06;;;;;;;7.72;5.50;;;16.40;91.70;;;;;;5010433;28;20100;-42
2022/06/17 00:36:34;;;;;;;8.15;5.80;;;16.40;91.40;;;;;;5012402;28;20046;-42
2022/06/17 00:39:01;;;;;;;11.27;6.65;;;16.40;91.30;;;;;;5009793;28;20112;-43
2022/06/17 00:41:29;;;;;;;6.57;5.20;;;16.40;91.50;;;;;;4992552;28;20081;-42
2022/06/17 00:43:56;;;;;;;7.32;5.63;;;16.30;91.40;;;;;;4994549;28;20077;-42
2022/06/17 00:46:34;;;;;;;9.52;6.03;;;16.30;91.30;;;;;;4995176;28;20046;-42
2022/06/17 00:49:05;;;;;;;12.02;5.90;;;16.30;91.30;;;;;;5009940;28;20041;-42
2022/06/17 00:51:35;;;;;;;7.15;5.93;;;16.30;91.50;;;;;;4998840;28;20042;-42
2022/06/17 00:54:03;;;;;;;7.97;6.47;;;16.20;91.50;;;;;;5004773;28;20474;-42
2022/06/17 00:56:31;;;;;;;13.18;7.60;;;16.20;91.50;;;;;;5011509;28;20100;-42
2022/06/17 00:59:03;;;;;;;7.75;5.80;;;16.20;91.90;;;;;;5007105;28;20104;-42
2022/06/17 01:01:32;;;;;;;9.10;6.05;;;16.20;91.60;;;;;;4985918;28;20593;-42
2022/06/17 01:04:01;;;;;;;10.20;6.07;;;16.20;91.80;;;;;;4994550;28;20135;-43
2022/06/17 01:06:38;;;;;;;11.88;7.85;;;16.20;91.90;;;;;;5010484;28;20092;-42
2022/06/17 01:11:51;;;;;;;7.78;6.47;;;16.10;93.10;;;;;;5000531;28;20058;-41
2022/06/17 01:14:17;;;;;;;9.43;7.18;;;16.00;92.70;;;;;;4989341;28;20046;-41
2022/06/17 01:16:44;;;;;;;11.82;7.30;;;16.00;93.00;;;;;;5010515;28;20069;-41
2022/06/17 01:19:14;;;;;;;10.02;6.30;;;16.00;92.80;;;;;;5013044;28;20470;-42
2022/06/17 01:21:47;;;;;;;12.18;7.30;;;15.90;92.60;;;;;;5007339;28;20042;-41
2022/06/17 01:24:15;;;;;;;8.93;8.02;;;15.90;92.90;;;;;;4995799;28;20054;-41
2022/06/17 01:26:42;;;;;;;9.25;6.50;;;15.90;93.00;;;;;;4994612;28;20081;-41
2022/06/17 01:29:11;;;;;;;8.70;6.65;;;15.80;92.70;;;;;;4992018;28;20133;-42
2022/06/17 01:31:38;;;;;;;8.05;5.90;;;15.90;92.70;;;;;;4999194;28;20054;-42
2022/06/17 01:34:04;;;;;;;10.55;6.93;;;15.90;92.60;;;;;;5001291;28;20104;-42
2022/06/17 01:36:31;;;;;;;9.00;6.63;;;15.90;92.60;;;;;;5008587;28;20097;-43
2022/06/17 01:38:59;;;;;;;8.75;7.28;;;15.80;92.70;;;;;;5019373;28;20528;-42
2022/06/17 01:41:31;;;;;;;9.50;6.95;;;15.80;92.80;;;;;;5011484;28;20084;-43
2022/06/17 01:44:00;;;;;;;9.63;7.38;;;15.80;92.80;;;;;;5009773;28;20136;-42
2022/06/17 01:46:29;;;;;;;11.35;8.23;;;15.80;93.10;;;;;;5009996;28;20054;-42
2022/06/17 01:48:58;;;;;;;11.18;7.32;;;15.80;93.30;;;;;;4993496;28;20078;-42
2022/06/17 01:51:25;;;;;;;11.55;7.45;;;15.80;93.40;;;;;;5011887;28;20073;-42
2022/06/17 01:53:54;;;;;;;10.55;7.00;;;15.70;93.20;;;;;;5011336;28;20100;-42
2022/06/17 01:56:22;;;;;;;10.02;6.90;;;15.70;93.00;;;;;;4989708;28;20141;-42
2022/06/17 01:58:53;;;;;;;7.63;5.82;;;15.70;92.90;;;;;;4994099;28;20136;-42
2022/06/17 02:01:22;;;;;;;11.82;7.13;;;15.70;92.80;;;;;;5012016;28;20070;-42
2022/06/17 02:03:50;;;;;;;10.10;6.72;;;15.70;93.00;;;;;;5011146;28;20045;-42
2022/06/17 02:06:19;;;;;;;8.70;6.38;;;15.60;92.90;;;;;;4990950;28;20054;-41
2022/06/17 02:08:46;;;;;;;10.15;6.75;;;15.60;93.00;;;;;;4993604;28;20082;-41
2022/06/17 02:11:13;;;;;;;8.30;5.53;;;15.60;92.90;;;;;;4991626;28;20133;-42
2022/06/17 02:13:40;;;;;;;9.80;5.57;;;15.60;92.50;;;;;;5009380;28;20046;-41
2022/06/17 02:16:08;;;;;;;11.85;6.57;;;15.60;92.40;;;;;;4994321;28;20041;-42
2022/06/17 02:18:35;;;;;;;9.77;5.90;;;15.60;92.50;;;;;;4992110;28;20081;-42
2022/06/17 02:21:04;;;;;;;7.78;5.60;;;15.60;92.30;;;;;;5010837;28;20478;-42
2022/06/17 02:23:31;;;;;;;9.55;6.65;;;15.50;92.30;;;;;;5013490;28;20141;-41
2022/06/17 02:25:58;;;;;;;7.95;5.80;;;15.50;92.40;;;;;;4997339;28;20077;-42
2022/06/17 02:28:25;;;;;;;8.55;5.65;;;15.50;92.30;;;;;;5016560;28;20034;-41
2022/06/17 02:30:52;;;;;;;8.75;6.25;;;15.50;92.30;;;;;;5014861;28;20092;-42
2022/06/17 02:33:20;;;;;;;8.70;6.45;;;15.50;92.30;;;;;;5013360;28;20371;-42
2022/06/17 02:35:50;;;;;;;9.02;5.90;;;15.40;92.50;;;;;;4996179;28;21730;-42
2022/06/17 02:38:18;;;;;;;7.55;6.35;;;15.40;92.60;;;;;;4994708;28;20050;-42
2022/06/17 02:40:46;;;;;;;7.93;5.82;;;15.40;92.60;;;;;;4996381;28;20076;-41
2022/06/17 02:43:15;;;;;;;7.13;5.80;;;15.30;92.50;;;;;;5013845;28;20108;-42
2022/06/17 02:45:45;;;;;;;7.55;5.72;;;15.30;92.70;;;;;;5015026;28;20096;-42
2022/06/17 02:48:22;;;;;;;8.80;6.72;;;15.30;92.90;;;;;;5015568;28;20088;-41
2022/06/17 02:50:48;;;;;;;7.53;5.45;;;15.20;92.70;;;;;;5012518;28;20141;-41
2022/06/17 02:53:15;;;;;;;15.27;6.78;;;15.20;92.60;;;;;;5013135;28;20050;-42
2022/06/17 02:55:42;;;;;;;9.20;6.82;;;15.20;92.90;;;;;;5014798;28;20084;-42
2022/06/17 02:58:13;;;;;;;12.13;7.35;;;15.20;92.80;;;;;;4994889;28;20054;-43
2022/06/17 03:00:40;;;;;;;10.70;6.80;;;15.20;93.00;;;;;;4996306;28;20053;-42
2022/06/17 03:03:07;;;;;;;8.02;6.32;;;15.20;93.10;;;;;;5004495;28;20046;-42
2022/06/17 03:05:37;;;;;;;9.98;6.78;;;15.10;92.90;;;;;;5014273;28;20132;-42
2022/06/17 03:08:10;;;;;;;9.73;6.50;;;15.10;93.10;;;;;;5009269;28;20493;-43
2022/06/17 03:10:40;;;;;;;7.95;6.60;;;15.10;93.20;;;;;;5009853;28;20041;-42
2022/06/17 03:13:14;;;;;;;11.20;5.87;;;15.10;93.00;;;;;;5010114;28;20381;-42
2022/06/17 03:15:42;;;;;;;9.63;6.30;;;15.10;93.10;;;;;;4995031;28;20077;-42
2022/06/17 03:18:09;;;;;;;9.82;6.78;;;15.10;93.10;;;;;;5013943;28;20045;-42
2022/06/17 03:20:37;;;;;;;10.70;7.28;;;15.10;93.20;;;;;;5013508;28;20056;-42
2022/06/17 03:23:06;;;;;;;8.60;6.70;;;15.10;93.40;;;;;;5012084;28;20489;-42
2022/06/17 03:25:47;;;;;;;10.80;6.43;;;15.10;93.70;;;;;;5013251;28;20050;-43
2022/06/17 03:28:15;;;;;;;10.20;6.30;;;15.10;93.50;;;;;;4996283;28;20045;-42
2022/06/17 03:30:45;;;;;;;14.25;7.72;;;15.10;93.40;;;;;;4995335;28;20076;-42
2022/06/17 03:33:14;;;;;;;12.20;6.07;;;15.10;93.70;;;;;;5012641;28;20084;-42
2022/06/17 03:35:43;;;;;;;9.30;6.25;;;15.10;93.40;;;;;;5010903;28;20133;-42
2022/06/17 03:38:26;;;;;;;12.35;7.72;;;15.10;93.30;;;;;;5006133;28;20046;-43
2022/06/17 03:40:54;;;;;;;11.93;7.38;;;15.20;93.60;;;;;;4993762;28;20069;-42
2022/06/17 03:43:22;;;;;;;14.13;7.35;;;15.20;93.80;;;;;;5010969;28;20050;-42
2022/06/17 03:45:51;;;;;;;13.85;7.53;;;15.20;94.00;;;;;;4995020;28;20077;-42
2022/06/17 03:48:21;;;;;;;10.88;7.03;;;15.10;94.10;;;;;;5013616;28;20525;-42
2022/06/17 03:50:49;;;;;;;10.73;7.43;;;15.20;94.00;;;;;;5012176;28;20482;-42
2022/06/17 03:53:23;;;;;;;12.40;9.00;;;15.30;94.00;;;;;;4993926;28;20050;-44
2022/06/17 03:55:50;;;;;;;13.10;7.53;;;15.30;94.30;;;;;;5012323;28;20140;-42
2022/06/17 03:58:17;;;;;;;19.95;9.80;;;15.30;94.30;;;;;;5012111;28;20536;-42
2022/06/17 04:00:46;;;;;;;12.32;9.50;;;15.30;94.60;;;;;;4993420;28;20447;-42
2022/06/17 04:03:14;;;;;;;12.65;8.77;;;15.40;94.80;;;;;;5010817;28;20474;-42
2022/06/17 04:05:41;;;;;;;15.73;8.40;;;15.40;94.70;;;;;;4992600;28;20077;-42
2022/06/17 04:08:09;;;;;;;16.63;9.18;;;15.40;95.00;;;;;;5021097;28;20076;-42
2022/06/17 04:10:36;;;;;;;12.43;8.18;;;15.50;95.10;;;;;;4988260;28;20129;-42
2022/06/17 04:13:03;;;;;;;14.13;9.25;;;15.50;95.00;;;;;;5006852;28;20080;-42
2022/06/17 04:15:35;;;;;;;11.63;8.85;;;15.60;95.10;;;;;;4996031;28;20049;-42
2022/06/17 04:18:02;;;;;;;12.80;9.45;;;15.70;95.10;;;;;;4999520;28;20042;-42
2022/06/17 04:20:33;;;;;;;13.70;8.90;;;15.70;95.20;;;;;;5007928;28;20074;-42
2022/06/17 04:23:02;;;;;;;15.77;8.95;;;15.80;95.30;;;;;;5005756;28;20141;-43
2022/06/17 04:25:33;;;;;;;17.25;9.02;;;15.90;95.20;;;;;;5013063;28;20081;-42
2022/06/17 04:28:03;;;;;;;11.50;8.13;;;15.90;95.20;;;;;;5017313;28;20107;-42
2022/06/17 04:30:31;;;;;;;14.93;8.82;;;16.00;95.10;;;;;;5012844;28;20053;-43
2022/06/17 04:33:01;;;;;;;13.00;9.15;;;16.10;95.10;;;;;;4994447;28;20104;-42
2022/06/17 04:35:28;;;;;;;13.82;9.27;;;16.10;95.20;;;;;;4995490;28;20073;-43
2022/06/17 04:37:55;;;;;;;15.30;9.82;;;16.10;95.20;;;;;;4993905;28;20116;-44
2022/06/17 04:40:24;;;;;;;14.05;9.75;;;16.10;95.20;;;;;;5011859;28;20129;-43
2022/06/17 04:42:53;;;;;;;11.75;9.35;;;16.20;95.20;;;;;;4994976;28;20064;-43
2022/06/17 04:45:21;;;;;;;14.13;9.90;;;16.30;95.10;;;;;;4994253;28;20046;-43
2022/06/17 04:47:48;;;;;;;16.35;10.52;;;16.30;95.10;;;;;;5007158;28;20046;-43
2022/06/17 04:50:16;;;;;;;15.45;10.63;;;16.40;94.90;;;;;;5012626;28;20045;-43
2022/06/17 04:52:44;;;;;;;12.73;10.40;;;16.40;94.90;;;;;;5013391;28;20537;-42
2022/06/17 04:55:14;;;;;;;14.50;10.93;;;16.50;94.90;;;;;;5012092;28;20084;-42
2022/06/17 04:57:41;;;;;;;17.55;11.23;;;16.50;94.90;;;;;;4992982;28;20045;-43
2022/06/17 05:00:32;;;;;;;14.95;10.88;;;16.50;94.80;;;;;;5009599;28;20511;-42
2022/06/17 05:02:59;;;;;;;18.13;11.27;;;16.60;94.80;;;;;;4984974;28;20497;-42
2022/06/17 05:05:29;;;;;;;13.70;9.93;;;16.60;94.90;;;;;;4995063;28;20050;-42
2022/06/17 05:07:55;;;;;;;14.50;10.75;;;16.60;94.90;;;;;;4994792;28;20065;-42
2022/06/17 05:10:24;;;;;;;15.57;11.00;;;16.70;95.00;;;;;;5012220;28;20363;-43
2022/06/17 05:12:52;;;;;;;19.65;11.52;;;16.70;95.20;;;;;;5011448;28;20037;-44
2022/06/17 05:15:20;;;;;;;11.95;10.07;;;16.70;95.20;;;;;;5009297;28;20062;-43
2022/06/17 05:17:49;;;;;;;18.13;10.30;;;16.80;95.10;;;;;;4987486;28;20130;-43
2022/06/17 05:20:17;;;;;;;15.88;11.18;;;16.80;95.20;;;;;;4990215;28;20132;-43
2022/06/17 05:22:46;;;;;;;15.80;9.80;;;16.80;95.20;;;;;;4994133;28;20159;-44
2022/06/17 05:25:19;;;;;;;16.60;11.15;;;16.80;95.20;;;;;;5010402;28;20050;-43
2022/06/17 05:27:46;;;;;;;14.52;10.18;;;16.90;95.20;;;;;;5009075;28;20137;-43
2022/06/17 05:30:13;;;;;;;15.95;10.55;;;16.90;95.30;;;;;;5006886;28;20062;-43
2022/06/17 05:32:40;;;;;;;19.10;10.07;;;16.90;95.40;;;;;;4993135;28;20060;-42
2022/06/17 05:35:09;;;;;;;16.77;10.27;;;17.00;95.30;;;;;;4991521;28;20038;-43
2022/06/17 05:37:36;;;;;;;18.00;10.60;;;17.00;95.20;;;;;;4998205;28;20066;-42
2022/06/17 05:40:05;;;;;;;11.70;9.70;;;17.10;95.20;;;;;;4985830;28;20066;-42
2022/06/17 05:42:32;;;;;;;18.88;10.35;;;17.10;95.10;;;;;;4994466;28;20042;-42
2022/06/17 05:44:59;;;;;;;15.30;10.55;;;17.20;95.00;;;;;;5012306;28;20410;-43
2022/06/17 05:47:26;;;;;;;16.65;10.80;;;17.20;94.90;;;;;;5009002;28;20050;-42
2022/06/17 05:49:52;;;;;;;16.02;10.48;;;17.20;94.70;;;;;;5010060;28;20099;-42
2022/06/17 05:52:21;;;;;;;12.45;10.05;;;17.30;94.80;;;;;;4999399;28;20054;-44
2022/06/17 05:54:47;;;;;;;12.07;10.02;;;17.30;94.80;;;;;;5006202;28;20433;-42
2022/06/17 05:57:15;;;;;;;12.50;9.52;;;17.30;94.80;;;;;;5010366;28;20560;-43
2022/06/17 05:59:41;;;;;;;16.48;10.15;;;17.40;94.90;;;;;;4998473;28;20058;-42
2022/06/17 06:02:10;;;;;;;13.02;10.30;;;17.40;94.90;;;;;;5020558;28;20143;-42
2022/06/17 06:04:37;;;;;;;18.17;10.63;;;17.50;94.90;;;;;;5013114;28;20152;-42
2022/06/17 06:07:04;;;;;;;13.10;10.30;;;17.50;94.90;;;;;;5004575;28;20069;-43
2022/06/17 06:09:32;;;;;;;13.23;10.02;;;17.60;94.80;;;;;;5013930;28;20133;-43
2022/06/17 06:11:59;;;;;;;25.65;10.02;;;17.70;94.90;;;;;;5012547;28;20485;-43
2022/06/17 06:14:26;;;;;;;15.50;10.80;;;17.70;94.70;;;;;;4995758;28;20041;-43
2022/06/17 06:16:52;;;;;;;14.45;10.98;;;17.70;94.70;;;;;;4991984;28;20073;-43
2022/06/17 06:19:19;;;;;;;17.70;10.85;;;17.80;94.60;;;;;;5007804;28;20482;-43
2022/06/17 06:21:46;;;;;;;13.60;10.48;;;17.80;94.50;;;;;;5006591;28;20042;-43
2022/06/17 06:24:13;;;;;;;20.45;10.65;;;17.90;94.50;;;;;;5017194;28;20092;-43
2022/06/17 06:26:41;;;;;;;16.65;10.02;;;17.90;94.50;;;;;;4994881;28;20546;-43
2022/06/17 06:29:08;;;;;;;14.27;8.85;;;18.00;94.50;;;;;;4993072;28;20050;-43
2022/06/17 06:31:35;;;;;;;13.43;9.82;;;18.00;94.50;;;;;;5013273;28;20080;-42
2022/06/17 06:34:02;;;;;;;13.93;9.52;;;18.10;94.20;;;;;;5014973;28;20050;-42
2022/06/17 06:36:29;;;;;;;13.68;9.95;;;18.10;94.10;;;;;;4994071;28;20147;-43
2022/06/17 06:38:56;;;;;;;26.27;10.40;;;18.20;94.20;;;;;;4995476;28;20046;-43
2022/06/17 06:41:23;;;;;;;21.15;9.88;;;18.30;94.10;;;;;;4995276;28;20084;-42
2022/06/17 06:43:51;;;;;;;17.73;9.43;;;18.40;94.30;;;;;;4990721;28;20101;-43
2022/06/17 06:46:18;;;;;;;15.88;9.43;;;18.50;93.70;;;;;;4985948;28;20045;-42
2022/06/17 06:48:45;;;;;;;14.85;9.63;;;18.60;93.70;;;;;;5004751;28;20168;-43
2022/06/17 06:51:12;;;;;;;20.83;10.02;;;18.70;93.40;;;;;;4993090;28;20096;-43
2022/06/17 06:53:39;;;;;;;13.88;8.98;;;18.80;93.20;;;;;;4990262;28;20527;-42
2022/06/17 06:56:06;;;;;;;17.02;10.20;;;18.90;92.90;;;;;;4984790;28;20074;-42
2022/06/17 06:58:32;;;;;;;17.52;9.40;;;19.00;92.50;;;;;;5004565;28;20041;-43
2022/06/17 07:01:01;;;;;;;14.10;9.43;;;19.10;92.50;;;;;;5009371;28;20489;-43
2022/06/17 07:03:28;;;;;;;18.95;9.65;;;19.30;92.50;;;;;;5010104;28;20053;-42
2022/06/17 07:05:56;;;;;;;16.80;9.52;;;19.40;92.10;;;;;;4995058;28;20049;-42
2022/06/17 07:08:27;;;;;;;13.82;9.70;;;19.50;91.70;;;;;;5010705;28;20139;-43
2022/06/17 07:10:55;;;;;;;16.08;10.35;;;19.60;91.40;;;;;;5015855;28;20450;-42
2022/06/17 07:13:22;;;;;;;12.98;9.10;;;19.70;91.50;;;;;;5029801;28;20549;-44
2022/06/17 07:15:49;;;;;;;16.45;9.48;;;19.80;91.60;;;;;;5003489;28;20060;-42
2022/06/17 07:18:18;;;;;;;13.65;9.00;;;20.00;91.30;;;;;;4996125;28;20478;-42
2022/06/17 07:20:46;;;;;;;12.15;9.85;;;20.00;91.20;;;;;;4995741;28;20081;-42
2022/06/17 07:23:14;;;;;;;13.48;8.43;;;20.10;91.10;;;;;;4993781;28;20470;-43
2022/06/17 07:25:41;;;;;;;11.82;9.23;;;20.20;91.10;;;;;;5007271;28;20448;-43
2022/06/17 07:28:08;;;;;;;12.40;9.02;;;20.20;90.60;;;;;;4991788;28;20037;-43
2022/06/17 07:30:35;;;;;;;11.50;9.02;;;20.30;90.40;;;;;;5012627;28;20046;-43
2022/06/17 07:33:02;;;;;;;13.45;9.13;;;20.40;90.20;;;;;;5006058;28;20100;-43
2022/06/17 07:35:31;;;;;;;13.25;8.63;;;20.50;90.20;;;;;;5005475;28;20042;-42
2022/06/17 07:40:47;;;;;;;11.73;8.68;;;20.70;89.50;;;;;;5011173;28;20057;-44
2022/06/17 07:43:14;;;;;;;20.65;8.32;;;20.80;89.30;;;;;;5004201;28;20096;-43
2022/06/17 07:45:41;;;;;;;11.85;8.38;;;21.00;88.30;;;;;;5013397;28;20394;-42
2022/06/17 07:48:09;;;;;;;16.58;8.52;;;21.10;87.00;;;;;;5010946;28;20124;-42
2022/06/17 07:50:38;;;;;;;10.10;7.95;;;21.30;86.20;;;;;;4997842;28;20086;-42
2022/06/17 07:53:05;;;;;;;12.02;8.00;;;21.50;86.30;;;;;;5004426;28;20077;-42
2022/06/17 07:55:31;;;;;;;16.55;8.30;;;21.70;85.90;;;;;;5003219;28;20064;-42
2022/06/17 07:57:58;;;;;;;12.23;7.47;;;21.80;85.40;;;;;;4994541;28;20049;-43
2022/06/17 08:00:26;;;;;;;16.90;7.35;;;21.90;85.40;;;;;;5012766;28;20057;-43
2022/06/17 08:02:53;;;;;;;13.35;6.95;;;22.00;85.00;;;;;;5007285;28;20057;-42
2022/06/17 08:05:21;;;;;;;13.30;7.72;;;22.00;83.90;;;;;;5012802;28;20441;-41
2022/06/17 08:07:49;;;;;;;14.15;7.07;;;22.10;82.80;;;;;;5005186;28;20092;-42
2022/06/17 08:10:17;;;;;;;10.98;6.50;;;22.10;82.40;;;;;;4981115;28;20120;-43
2022/06/17 08:12:44;;;;;;;13.50;6.70;;;22.20;81.80;;;;;;5000507;28;20563;-44
2022/06/17 08:15:12;;;;;;;10.65;6.80;;;22.30;81.80;;;;;;4971297;28;20788;-43
2022/06/17 08:17:39;;;;;;;12.65;6.85;;;22.40;81.70;;;;;;4975414;28;20659;-42
2022/06/17 08:20:09;;;;;;;9.38;6.68;;;22.60;81.30;;;;;;4991614;28;20121;-42
2022/06/17 08:22:36;;;;;;;6.97;5.73;;;22.60;79.50;;;;;;5010829;28;20421;-43
2022/06/17 08:25:06;;;;;;;9.20;6.60;;;22.70;79.20;;;;;;5014381;28;20091;-43
2022/06/17 08:27:33;;;;;;;8.20;5.70;;;22.70;77.90;;;;;;5023532;28;20186;-43
2022/06/17 08:30:00;;;;;;;17.38;5.85;;;22.70;78.10;;;;;;5012506;28;20494;-43
2022/06/17 08:35:12;;;;;;;8.85;5.07;;;22.90;78.10;;;;;;5009691;28;20050;-44
2022/06/17 08:37:38;;;;;;;8.15;4.65;;;22.90;76.70;;;;;;4994592;28;20080;-44
2022/06/17 08:40:13;;;;;;;12.63;4.85;;;22.90;76.40;;;;;;5012864;28;20171;-44
2022/06/17 08:42:47;;;;;;;7.95;4.43;;;23.00;76.40;;;;;;5025187;28;20077;-44
2022/06/17 08:45:17;;;;;;;7.35;4.40;;;23.10;77.00;;;;;;4988665;28;20061;-44
2022/06/17 08:47:51;;;;;;;8.00;3.90;;;23.10;76.40;;;;;;5003995;28;20469;-44
2022/06/17 08:50:58;;;;;;;9.98;4.32;;;23.20;76.20;;;;;;5010648;28;20077;-43
2022/06/17 08:53:51;;;;;;;8.13;4.30;;;23.30;74.60;;;;;;4992808;28;20050;-43
2022/06/17 08:56:23;;;;;;;9.18;3.75;;;23.40;73.60;;;;;;5008711;28;20041;-43
2022/06/17 08:58:55;;;;;;;8.18;3.83;;;23.40;74.70;;;;;;5009771;28;20049;-42
2022/06/17 09:01:26;;;;;;;8.75;3.53;;;23.40;74.70;;;;;;4992630;28;20209;-43
2022/06/17 09:04:02;;;;;;;10.18;3.78;;;23.40;74.30;;;;;;5010023;28;20069;-43
2022/06/17 09:06:38;;;;;;;8.00;4.05;;;23.50;74.50;;;;;;4992475;28;20072;-41
2022/06/17 09:09:14;;;;;;;8.25;3.80;;;23.50;73.90;;;;;;5011279;28;20046;-43
2022/06/17 09:11:45;;;;;;;6.25;3.72;;;23.60;73.30;;;;;;4997395;28;20046;-43
2022/06/17 09:14:20;;;;;;;10.23;4.10;;;23.70;72.80;;;;;;5003242;28;20053;-42
2022/06/17 09:16:52;;;;;;;9.98;3.70;;;23.70;73.00;;;;;;4994022;28;20050;-43
2022/06/17 09:19:21;;;;;;;9.82;4.18;;;23.80;72.70;;;;;;5011363;28;20766;-43
2022/06/17 09:21:49;;;;;;;8.82;4.10;;;23.90;72.20;;;;;;5018763;28;20151;-43
2022/06/17 09:24:18;;;;;;;11.95;4.32;;;24.00;71.00;;;;;;4991528;28;20046;-43
2022/06/17 09:26:49;;;;;;;16.50;4.07;;;24.00;70.90;;;;;;4991989;28;20092;-43
2022/06/17 09:29:18;;;;;;;8.38;3.95;;;24.10;70.90;;;;;;5006575;28;20045;-42
2022/06/17 09:31:46;;;;;;;8.68;3.72;;;24.20;70.70;;;;;;4981169;28;20466;-43
2022/06/17 09:34:17;;;;;;;7.82;4.00;;;24.40;71.50;;;;;;4997566;28;20038;-43
2022/06/17 09:36:46;;;;;;;6.50;4.10;;;24.50;70.90;;;;;;5007092;28;20080;-43
2022/06/17 09:39:14;;;;;;;13.25;4.25;;;24.60;69.80;;;;;;4997891;28;20061;-44
2022/06/17 09:41:43;;;;;;;11.02;4.43;;;24.70;69.40;;;;;;4986071;28;20049;-44
2022/06/17 09:44:13;;;;;;;7.40;4.10;;;24.70;68.70;;;;;;5007825;28;20046;-42
2022/06/17 09:46:42;;;;;;;8.02;3.90;;;24.70;68.50;;;;;;4990628;28;20401;-42
2022/06/17 09:49:13;;;;;;;17.73;3.92;;;24.80;68.80;;;;;;4990965;28;20042;-42
2022/06/17 09:51:43;;;;;;;6.90;4.45;;;25.00;69.20;;;;;;5008206;28;20049;-44
2022/06/17 09:54:13;;;;;;;9.40;4.07;;;25.10;68.30;;;;;;5005702;28;20038;-43
2022/06/17 09:56:42;;;;;;;17.83;4.72;;;25.20;68.50;;;;;;4991967;28;20050;-43
2022/06/17 09:59:16;;;;;;;7.32;3.67;;;25.30;68.20;;;;;;4986478;28;20050;-43
2022/06/17 10:01:43;;;;;;;7.32;4.07;;;25.40;68.40;;;;;;4997667;28;20034;-43
2022/06/17 10:04:10;;;;;;;7.97;4.03;;;25.60;68.50;;;;;;4990656;28;20430;-43
2022/06/17 10:06:41;;;;;;;7.10;3.92;;;25.70;67.10;;;;;;4995451;28;20643;-43
2022/06/17 10:09:23;;;;;;;5.65;4.20;;;25.70;66.80;;;;;;4998495;28;20497;-44
2022/06/17 10:11:53;;;;;;;11.13;3.58;;;25.80;67.00;;;;;;4981355;28;20046;-44
2022/06/17 10:14:27;;;;;;;8.82;4.70;;;25.90;67.30;;;;;;5000618;28;20117;-44
2022/06/17 10:19:50;;;;;;;12.55;4.53;;;26.00;65.10;;;;;;4990500;28;20050;-44
2022/06/17 10:22:23;;;;;;;8.90;4.22;;;26.10;64.90;;;;;;5005689;28;20045;-44
2022/06/17 10:25:06;;;;;;;5.63;3.53;;;26.20;65.10;;;;;;5000459;28;20100;-43
2022/06/17 10:27:43;;;;;;;8.10;3.55;;;26.30;64.90;;;;;;4988433;28;20046;-43
2022/06/17 10:30:13;;;;;;;6.43;3.72;;;26.40;64.80;;;;;;4987046;28;20047;-43
2022/06/17 10:32:41;;;;;;;10.13;3.70;;;26.50;64.10;;;;;;4991569;28;20082;-43
2022/06/17 10:35:14;;;;;;;5.85;3.80;;;26.60;64.70;;;;;;4982811;28;20049;-43
2022/06/17 10:37:41;;;;;;;9.07;3.88;;;26.70;62.90;;;;;;5009025;28;20050;-43
2022/06/17 10:40:09;;;;;;;6.53;3.35;;;26.70;63.00;;;;;;4982649;28;20517;-44
2022/06/17 10:42:36;;;;;;;8.07;4.35;;;26.60;62.90;;;;;;4995843;28;20081;-41
2022/06/17 10:45:03;;;;;;;10.48;3.70;;;26.70;62.80;;;;;;5014195;28;20049;-45
2022/06/17 10:47:37;;;;;;;11.30;3.90;;;26.70;62.70;;;;;;5011848;28;20100;-45
2022/06/17 10:50:06;;;;;;;8.15;3.25;;;26.70;62.90;;;;;;5010882;28;20074;-45
2022/06/17 10:52:35;;;;;;;10.02;3.30;;;26.90;63.60;;;;;;5000921;28;20545;-45
2022/06/17 10:55:03;;;;;;;9.05;4.25;;;27.00;63.30;;;;;;5013949;28;20042;-44
2022/06/17 10:57:30;;;;;;;7.55;4.35;;;27.00;61.60;;;;;;5000076;28;20042;-43
2022/06/17 10:59:57;;;;;;;6.60;3.55;;;27.00;60.70;;;;;;4989845;28;20137;-43
2022/06/17 11:02:27;;;;;;;8.70;3.60;;;27.00;60.70;;;;;;4996626;28;20125;-44
2022/06/17 11:04:56;;;;;;;12.05;3.80;;;27.00;61.00;;;;;;4993339;28;20132;-43
2022/06/17 11:07:27;;;;;;;11.30;3.33;;;27.10;61.00;;;;;;5011620;28;20133;-44
2022/06/17 11:09:55;;;;;;;7.70;3.25;;;27.10;60.40;;;;;;5013393;28;20136;-44
2022/06/17 11:12:33;;;;;;;10.98;4.05;;;27.20;61.40;;;;;;5014768;28;20050;-44
2022/06/17 11:15:03;;;;;;;8.13;3.80;;;27.20;60.20;;;;;;5010557;28;20084;-44
2022/06/17 11:17:33;;;;;;;12.38;3.45;;;27.20;60.60;;;;;;5013079;28;20054;-44
2022/06/17 11:23:32;;;;;;;9.25;4.30;;;27.20;60.60;;;;;;5007575;28;20053;-42
2022/06/17 11:26:10;;;;;;;5.30;3.03;;;27.30;59.60;;;;;;5013726;28;20115;-44
2022/06/17 11:28:38;;;;;;;7.47;3.70;;;27.30;59.60;;;;;;5002325;28;20058;-44
2022/06/17 11:31:06;;;;;;;8.45;3.30;;;27.30;59.60;;;;;;5007308;28;20481;-44
2022/06/17 11:33:34;;;;;;;9.52;3.65;;;27.40;58.50;;;;;;4995431;28;20057;-44
2022/06/17 11:36:02;;;;;;;6.45;3.53;;;27.50;58.00;;;;;;4995504;28;20065;-43
2022/06/17 11:38:29;;;;;;;8.02;3.53;;;27.70;57.80;;;;;;4991567;28;20050;-43
2022/06/17 11:40:57;;;;;;;6.30;3.50;;;27.80;58.30;;;;;;5011909;28;20092;-43
2022/06/17 11:43:33;;;;;;;10.63;3.35;;;27.90;58.80;;;;;;4995718;28;20089;-43
2022/06/17 11:46:07;;;;;;;8.45;3.78;;;28.10;57.70;;;;;;4992217;28;20049;-43
2022/06/17 11:48:35;;;;;;;8.13;4.15;;;28.20;57.30;;;;;;5012276;28;20406;-43
2022/06/17 11:51:05;;;;;;;10.68;4.28;;;28.30;56.80;;;;;;5012943;28;20044;-44
2022/06/17 11:53:32;;;;;;;13.07;4.30;;;28.50;56.30;;;;;;4988850;28;20077;-44
2022/06/17 11:56:00;;;;;;;11.20;3.95;;;28.40;55.50;;;;;;5010074;28;20046;-44
2022/06/17 11:58:27;;;;;;;8.65;3.58;;;28.40;55.60;;;;;;5012446;28;20057;-42
2022/06/17 12:00:55;;;;;;;7.72;3.47;;;28.40;56.00;;;;;;4991667;28;20127;-43
2022/06/17 12:03:26;;;;;;;7.32;3.67;;;28.50;55.70;;;;;;5011393;28;20037;-43
2022/06/17 12:05:57;;;;;;;9.45;4.30;;;28.50;55.70;;;;;;4995425;28;20085;-44
2022/06/17 12:08:25;;;;;;;4.95;3.45;;;28.40;55.20;;;;;;4994444;28;20095;-43
2022/06/17 12:10:53;;;;;;;9.35;3.22;;;28.40;55.90;;;;;;5011780;28;20038;-44
2022/06/17 12:13:28;;;;;;;7.45;3.25;;;28.50;55.40;;;;;;5013152;28;20092;-44
2022/06/17 12:15:59;;;;;;;10.32;4.43;;;28.50;54.60;;;;;;5008446;28;20129;-44
2022/06/17 12:18:28;;;;;;;8.35;3.75;;;28.40;54.60;;;;;;4976874;28;20526;-43
2022/06/17 12:21:13;;;;;;;8.38;4.22;;;28.30;54.50;;;;;;4976816;28;20082;-43
2022/06/17 12:23:41;;;;;;;7.63;3.67;;;28.30;54.50;;;;;;4991675;28;20092;-43
2022/06/17 12:26:13;;;;;;;9.32;3.33;;;28.40;54.50;;;;;;4993983;28;20105;-43
2022/06/17 12:28:44;;;;;;;7.57;3.28;;;28.70;54.60;;;;;;4996057;28;20438;-43
2022/06/17 12:31:18;;;;;;;7.13;3.17;;;28.90;53.90;;;;;;4996380;28;20085;-43
2022/06/17 12:33:46;;;;;;;6.07;2.90;;;29.10;53.30;;;;;;5013633;28;20184;-43
2022/06/17 12:36:19;;;;;;;6.78;3.47;;;29.30;54.40;;;;;;4996067;28;20054;-43
2022/06/17 12:38:49;;;;;;;6.03;3.13;;;29.50;53.30;;;;;;4987403;28;20178;-44
2022/06/17 12:41:20;;;;;;;8.02;3.05;;;29.70;52.50;;;;;;4996577;28;20100;-43
2022/06/17 12:43:51;;;;;;;29.40;3.20;;;29.90;52.40;;;;;;4995994;28;20401;-43
2022/06/17 12:46:20;;;;;;;7.15;3.10;;;30.10;52.40;;;;;;4996057;28;20092;-43
2022/06/17 12:48:49;;;;;;;7.15;3.17;;;30.30;52.50;;;;;;5012614;28;20049;-43
2022/06/17 12:54:05;;;;;;;7.82;3.00;;;30.50;51.10;;;;;;4999434;28;20050;-43
2022/06/17 12:56:36;;;;;;;10.30;3.40;;;30.50;50.90;;;;;;5013153;28;20077;-43
2022/06/17 12:59:29;;;;;;;7.40;3.65;;;30.50;50.70;;;;;;5013238;28;20133;-44
2022/06/17 13:02:01;;;;;;;6.35;3.30;;;30.50;49.90;;;;;;4995417;28;20124;-43
2022/06/17 13:04:47;;;;;;;5.75;2.90;;;30.40;49.90;;;;;;5011344;28;20482;-44
2022/06/17 13:07:18;;;;;;;10.23;3.50;;;30.40;50.40;;;;;;4992034;28;20518;-44
2022/06/17 13:09:48;;;;;;;6.18;2.88;;;30.40;50.20;;;;;;5000694;28;20046;-43